Time;durP1;ratioP1;P1;durP2;ratioP2;P2;SDS_P1;SDS_P2;PMS_P1;PMS_P2;Temp;Humidity;BMP_temperature;BMP_pressure;BME280_temperature;BME280_humidity;BME280_pressure;Samples;Min_cycle;Max_cycle;Signal;HPM_P1;HPM_P2
2022/12/31 00:01:01;;;;;;;53.87;28.20;;;9.30;91.60;;;;;;5056347;28;20601;-82
2022/12/31 00:03:29;;;;;;;55.23;28.13;;;9.20;91.60;;;;;;5058464;28;20199;-83
2022/12/31 00:05:59;;;;;;;51.47;27.90;;;9.20;91.50;;;;;;5067542;28;20187;-82
2022/12/31 00:08:27;;;;;;;52.30;28.07;;;9.20;91.50;;;;;;5067072;28;20248;-82
2022/12/31 00:10:55;;;;;;;54.10;28.00;;;9.20;91.40;;;;;;5053620;28;20605;-83
2022/12/31 00:13:24;;;;;;;53.47;28.77;;;9.20;91.40;;;;;;5057694;28;20191;-82
2022/12/31 00:15:52;;;;;;;57.50;29.40;;;9.20;91.30;;;;;;5057887;28;20242;-83
2022/12/31 00:18:20;;;;;;;58.43;29.63;;;9.10;91.30;;;;;;5058763;28;20191;-82
2022/12/31 00:20:49;;;;;;;51.67;27.03;;;9.10;91.40;;;;;;5061658;28;20261;-84
2022/12/31 00:23:18;;;;;;;56.77;28.37;;;9.10;91.40;;;;;;5059468;28;20206;-82
2022/12/31 00:25:47;;;;;;;57.77;29.90;;;9.10;91.30;;;;;;5062352;28;20202;-82
2022/12/31 00:28:15;;;;;;;56.33;28.37;;;9.10;91.30;;;;;;5062386;28;20187;-82
2022/12/31 00:30:43;;;;;;;55.87;26.93;;;9.10;91.30;;;;;;5063478;28;20191;-83
2022/12/31 00:33:12;;;;;;;56.00;27.60;;;9.10;91.30;;;;;;5061825;28;20614;-82
2022/12/31 00:35:40;;;;;;;61.95;32.17;;;9.10;91.30;;;;;;5061272;28;20432;-82
2022/12/31 00:38:09;;;;;;;53.30;28.37;;;9.00;91.50;;;;;;5055714;28;20203;-81
2022/12/31 00:40:39;;;;;;;51.50;28.53;;;9.00;91.50;;;;;;5057133;28;20682;-82
2022/12/31 00:43:07;;;;;;;55.70;30.10;;;9.00;91.50;;;;;;5064719;28;20193;-82
2022/12/31 00:45:35;;;;;;;56.10;29.33;;;9.00;91.50;;;;;;5063771;28;20190;-82
2022/12/31 00:48:04;;;;;;;60.80;33.28;;;9.00;91.50;;;;;;5057797;28;20444;-82
2022/12/31 00:50:32;;;;;;;54.70;28.67;;;9.00;91.90;;;;;;5058923;28;20564;-82
2022/12/31 00:53:01;;;;;;;53.27;29.20;;;9.00;91.80;;;;;;5059394;28;20198;-82
2022/12/31 00:55:30;;;;;;;52.83;27.07;;;9.00;91.70;;;;;;5059741;28;20198;-82
2022/12/31 00:58:00;;;;;;;59.20;29.42;;;9.00;91.60;;;;;;5062584;28;20095;-83
2022/12/31 01:00:28;;;;;;;52.90;27.77;;;9.00;91.50;;;;;;5060611;28;20198;-83
2022/12/31 01:02:57;;;;;;;55.33;28.07;;;9.00;91.50;;;;;;5056342;28;20186;-82
2022/12/31 01:05:27;;;;;;;55.57;28.70;;;8.90;91.40;;;;;;5055025;28;20669;-82
2022/12/31 01:07:55;;;;;;;59.40;29.57;;;8.90;91.40;;;;;;5065086;28;20232;-83
2022/12/31 01:13:08;;;;;;;65.97;30.40;;;8.90;91.50;;;;;;5058712;28;20651;-82
2022/12/31 01:15:38;;;;;;;61.60;31.00;;;8.80;91.70;;;;;;5063207;28;20594;-82
2022/12/31 01:18:07;;;;;;;58.03;29.73;;;8.80;91.60;;;;;;5064226;28;20195;-80
2022/12/31 01:20:37;;;;;;;60.30;29.67;;;8.80;91.70;;;;;;5058225;28;20198;-82
2022/12/31 01:23:05;;;;;;;62.83;30.70;;;8.80;91.80;;;;;;5058629;28;20901;-82
2022/12/31 01:25:36;;;;;;;59.63;30.83;;;8.80;91.80;;;;;;5060165;28;20640;-82
2022/12/31 01:28:05;;;;;;;56.43;30.93;;;8.80;91.80;;;;;;5054427;28;20190;-82
2022/12/31 01:30:37;;;;;;;64.10;30.53;;;8.80;91.80;;;;;;5061321;28;20191;-81
2022/12/31 01:33:06;;;;;;;61.20;30.70;;;8.80;92.20;;;;;;5063667;28;20559;-82
2022/12/31 01:35:35;;;;;;;64.93;34.67;;;8.80;91.80;;;;;;5054545;28;20471;-81
2022/12/31 01:38:04;;;;;;;59.70;31.63;;;8.80;92.10;;;;;;5058888;28;20277;-80
2022/12/31 01:40:36;;;;;;;63.50;32.70;;;8.70;92.10;;;;;;5068256;28;20643;-82
2022/12/31 01:43:15;;;;;;;59.73;30.93;;;8.80;92.20;;;;;;5059538;28;20195;-82
2022/12/31 01:45:47;;;;;;;64.80;31.50;;;8.80;92.30;;;;;;5055281;28;20588;-81
2022/12/31 01:48:20;;;;;;;64.47;32.53;;;8.80;92.30;;;;;;5059278;28;20260;-81
2022/12/31 01:50:49;;;;;;;61.90;31.17;;;8.80;92.30;;;;;;5067691;28;20209;-81
2022/12/31 01:53:18;;;;;;;62.10;31.43;;;8.80;92.30;;;;;;5079785;28;20182;-82
2022/12/31 01:55:50;;;;;;;60.80;30.97;;;8.80;92.70;;;;;;5073085;28;20599;-81
2022/12/31 01:58:23;;;;;;;62.67;31.10;;;8.80;92.30;;;;;;5076530;28;20210;-81
2022/12/31 02:00:53;;;;;;;61.23;31.53;;;8.80;92.20;;;;;;5074824;28;20241;-83
2022/12/31 02:03:24;;;;;;;53.40;29.10;;;8.90;92.20;;;;;;5083964;28;20198;-82
2022/12/31 02:05:57;;;;;;;59.20;31.53;;;8.90;92.20;;;;;;5083907;28;20190;-81
2022/12/31 02:08:25;;;;;;;59.77;31.47;;;8.80;92.10;;;;;;5069867;28;20329;-82
2022/12/31 02:10:53;;;;;;;64.20;31.53;;;8.80;92.10;;;;;;5080988;28;20198;-81
2022/12/31 02:13:22;;;;;;;68.77;32.83;;;8.80;92.10;;;;;;5078084;28;20707;-82
2022/12/31 02:15:59;;;;;;;56.60;29.53;;;8.90;92.10;;;;;;5080363;28;20183;-83
2022/12/31 02:18:34;;;;;;;60.40;30.07;;;8.80;92.10;;;;;;5081181;28;20212;-81
2022/12/31 02:21:28;;;;;;;63.17;32.37;;;8.90;92.10;;;;;;5081853;28;20193;-81
2022/12/31 02:24:20;;;;;;;66.00;32.20;;;8.90;92.20;;;;;;5079168;28;20260;-82
2022/12/31 02:26:59;;;;;;;69.00;32.03;;;8.90;92.20;;;;;;5080173;28;20215;-83
2022/12/31 02:29:58;;;;;;;64.83;33.20;;;8.80;92.10;;;;;;5072797;28;20185;-80
2022/12/31 02:32:48;;;;;;;58.50;29.93;;;8.80;92.10;;;;;;5081260;28;20235;-81
2022/12/31 02:35:22;;;;;;;61.80;31.40;;;8.80;92.10;;;;;;5082287;28;20201;-81
2022/12/31 02:37:54;;;;;;;62.27;32.47;;;8.80;92.10;;;;;;5077277;28;20214;-81
2022/12/31 02:40:23;;;;;;;61.17;32.57;;;8.80;92.10;;;;;;5073636;28;20186;-82
2022/12/31 02:42:51;;;;;;;57.60;30.60;;;8.80;92.10;;;;;;5075711;28;20198;-81
2022/12/31 02:45:28;;;;;;;66.77;33.03;;;8.80;92.00;;;;;;5083766;28;20628;-82
2022/12/31 02:48:21;;;;;;;58.30;31.00;;;8.70;92.00;;;;;;5081575;28;20599;-82
2022/12/31 02:51:00;;;;;;;61.17;30.30;;;8.80;92.00;;;;;;5082118;28;20556;-81
2022/12/31 02:54:01;;;;;;;57.50;29.20;;;8.70;91.90;;;;;;5076438;28;20186;-80
2022/12/31 02:56:37;;;;;;;59.77;30.60;;;8.70;91.80;;;;;;5080749;28;20192;-81
2022/12/31 03:02:18;;;;;;;61.27;31.33;;;8.60;91.70;;;;;;5073515;28;20198;-80
2022/12/31 03:04:52;;;;;;;62.17;31.93;;;8.60;91.70;;;;;;5087000;28;20201;-81
2022/12/31 03:07:23;;;;;;;60.27;29.70;;;8.60;91.70;;;;;;5088462;28;20186;-80
2022/12/31 03:09:52;;;;;;;64.33;32.47;;;8.50;91.70;;;;;;5081778;28;20536;-80
2022/12/31 03:15:18;;;;;;;60.90;31.13;;;8.40;91.80;;;;;;5088665;28;20247;-78
2022/12/31 03:17:59;;;;;;;63.57;32.70;;;8.40;91.90;;;;;;5082534;28;20232;-81
2022/12/31 03:23:21;;;;;;;58.87;31.00;;;8.30;92.00;;;;;;5080880;28;20190;-79
2022/12/31 03:25:49;;;;;;;64.23;31.43;;;8.30;92.20;;;;;;5085967;28;20186;-81
2022/12/31 03:28:19;;;;;;;60.23;31.10;;;8.30;92.30;;;;;;5091595;28;20194;-81
2022/12/31 03:30:51;;;;;;;62.20;32.00;;;8.30;92.40;;;;;;5082399;28;20186;-80
2022/12/31 03:33:21;;;;;;;62.67;31.73;;;8.20;92.50;;;;;;5087395;28;20190;-81
2022/12/31 03:35:51;;;;;;;64.77;32.13;;;8.20;92.60;;;;;;5087154;28;20556;-82
2022/12/31 03:38:19;;;;;;;65.00;31.87;;;8.20;92.70;;;;;;5081195;28;20681;-80
2022/12/31 03:40:50;;;;;;;67.07;32.37;;;8.10;92.70;;;;;;5078860;28;20548;-84
2022/12/31 03:43:19;;;;;;;63.93;34.63;;;8.10;92.70;;;;;;5082859;28;20182;-80
2022/12/31 03:45:50;;;;;;;64.73;33.80;;;8.10;92.80;;;;;;5084217;28;20190;-81
2022/12/31 03:48:19;;;;;;;70.97;37.25;;;8.10;92.70;;;;;;5088504;28;20433;-82
2022/12/31 03:50:48;;;;;;;66.13;33.57;;;8.10;92.90;;;;;;5089565;28;20271;-84
2022/12/31 03:53:18;;;;;;;63.87;33.67;;;8.10;93.00;;;;;;5079324;28;20258;-79
2022/12/31 03:55:51;;;;;;;69.37;32.53;;;8.00;92.90;;;;;;5084390;28;20541;-81
2022/12/31 03:58:19;;;;;;;65.50;30.83;;;8.00;92.90;;;;;;5089197;28;20202;-80
2022/12/31 04:00:47;;;;;;;66.23;32.00;;;8.00;92.90;;;;;;5085194;28;20186;-80
2022/12/31 04:03:16;;;;;;;67.40;35.45;;;8.00;92.80;;;;;;5085835;28;20442;-81
2022/12/31 04:05:44;;;;;;;63.93;31.70;;;8.00;92.90;;;;;;5080141;28;20236;-81
2022/12/31 04:08:12;;;;;;;60.47;31.03;;;8.00;92.90;;;;;;5089179;28;20186;-81
2022/12/31 04:10:42;;;;;;;64.00;30.87;;;8.00;92.80;;;;;;5081356;28;20189;-81
2022/12/31 04:13:10;;;;;;;56.60;30.70;;;8.00;92.70;;;;;;5084420;28;20710;-79
2022/12/31 04:15:39;;;;;;;67.22;36.88;;;8.00;92.60;;;;;;5078797;28;21139;-80
2022/12/31 04:18:13;;;;;;;60.67;32.00;;;8.00;92.80;;;;;;5081374;28;20271;-81
2022/12/31 04:20:41;;;;;;;60.03;31.93;;;7.90;92.80;;;;;;5089198;28;20201;-80
2022/12/31 04:23:09;;;;;;;57.63;30.53;;;7.90;92.60;;;;;;5075865;28;20186;-81
2022/12/31 04:25:38;;;;;;;59.30;31.70;;;7.90;92.60;;;;;;5080358;28;20190;-80
2022/12/31 04:28:07;;;;;;;61.53;32.63;;;7.90;92.50;;;;;;5083147;28;20223;-81
2022/12/31 04:30:36;;;;;;;66.43;33.40;;;7.90;92.30;;;;;;5086461;28;20635;-80
2022/12/31 04:33:04;;;;;;;63.77;31.90;;;7.90;92.30;;;;;;5074205;28;20254;-81
2022/12/31 04:35:32;;;;;;;57.90;30.03;;;7.80;92.20;;;;;;5086966;28;20773;-80
2022/12/31 04:38:01;;;;;;;65.67;31.40;;;7.80;92.30;;;;;;5084243;28;20229;-80
2022/12/31 04:40:29;;;;;;;68.67;32.33;;;7.80;92.30;;;;;;5088626;28;20240;-78
2022/12/31 04:42:57;;;;;;;62.27;33.43;;;7.70;92.30;;;;;;5080435;28;20185;-80
2022/12/31 04:45:27;;;;;;;73.63;36.03;;;7.70;92.40;;;;;;5084449;28;20511;-81
2022/12/31 04:47:55;;;;;;;63.07;31.57;;;7.70;92.50;;;;;;5076300;28;20225;-81
2022/12/31 04:50:24;;;;;;;64.10;32.37;;;7.70;92.60;;;;;;5083682;28;20217;-81
2022/12/31 04:52:52;;;;;;;60.90;32.60;;;7.60;92.60;;;;;;5078757;28;20205;-81
2022/12/31 04:55:20;;;;;;;64.87;32.93;;;7.60;92.80;;;;;;5074297;28;20609;-80
2022/12/31 04:57:48;;;;;;;64.33;32.33;;;7.60;92.80;;;;;;5077867;28;20251;-82
2022/12/31 05:00:17;;;;;;;68.70;35.70;;;7.60;92.80;;;;;;5080129;28;20200;-79
2022/12/31 05:02:47;;;;;;;68.40;33.07;;;7.60;92.80;;;;;;5087843;28;20202;-81
2022/12/31 05:05:16;;;;;;;60.50;33.07;;;7.60;92.80;;;;;;5083099;28;20639;-80
2022/12/31 05:07:44;;;;;;;60.53;31.93;;;7.50;92.70;;;;;;5071689;28;20197;-79
2022/12/31 05:10:12;;;;;;;74.40;37.03;;;7.50;92.70;;;;;;5079105;28;20442;-79
2022/12/31 05:12:41;;;;;;;67.87;32.57;;;7.50;92.80;;;;;;5076843;28;20256;-80
2022/12/31 05:15:09;;;;;;;68.73;33.80;;;7.50;92.80;;;;;;5077772;28;20261;-79
2022/12/31 05:17:38;;;;;;;68.77;35.70;;;7.50;92.70;;;;;;5083797;28;20190;-81
2022/12/31 05:20:08;;;;;;;67.97;34.97;;;7.50;92.80;;;;;;5084351;28;20317;-81
2022/12/31 05:22:37;;;;;;;74.55;38.75;;;7.50;92.80;;;;;;5075461;28;20442;-79
2022/12/31 05:25:06;;;;;;;64.50;34.33;;;7.40;92.90;;;;;;5079744;28;20194;-80
2022/12/31 05:27:36;;;;;;;64.83;34.47;;;7.40;93.00;;;;;;5083650;28;20223;-81
2022/12/31 05:30:05;;;;;;;69.23;34.63;;;7.30;93.30;;;;;;5073726;28;20185;-81
2022/12/31 05:32:34;;;;;;;72.77;35.50;;;7.30;93.40;;;;;;5077650;28;20213;-80
2022/12/31 05:35:03;;;;;;;69.70;37.65;;;7.30;93.40;;;;;;5077363;28;20910;-82
2022/12/31 05:37:33;;;;;;;66.03;34.57;;;7.30;93.50;;;;;;5083395;28;20713;-80
2022/12/31 05:40:02;;;;;;;67.33;34.23;;;7.30;93.50;;;;;;5077254;28;20605;-82
2022/12/31 05:42:30;;;;;;;61.50;32.03;;;7.30;93.40;;;;;;5077016;28;20275;-80
2022/12/31 05:44:58;;;;;;;65.87;33.53;;;7.30;93.30;;;;;;5083750;28;20484;-81
2022/12/31 05:47:27;;;;;;;72.22;38.53;;;7.30;93.30;;;;;;5082734;28;20434;-80
2022/12/31 05:49:55;;;;;;;67.53;33.60;;;7.20;93.40;;;;;;5084891;28;20244;-80
2022/12/31 05:52:24;;;;;;;68.23;33.90;;;7.20;93.30;;;;;;5047288;28;20193;-80
2022/12/31 05:54:53;;;;;;;67.63;33.40;;;7.20;93.30;;;;;;5084837;28;20193;-79
2022/12/31 05:57:22;;;;;;;65.57;34.23;;;7.20;93.30;;;;;;5084038;28;20242;-82
2022/12/31 05:59:52;;;;;;;66.07;33.77;;;7.20;93.30;;;;;;5078019;28;20228;-81
2022/12/31 06:02:21;;;;;;;70.37;33.80;;;7.10;93.30;;;;;;5077957;28;20194;-81
2022/12/31 06:04:49;;;;;;;68.30;34.33;;;7.10;93.30;;;;;;5086099;28;20280;-81
2022/12/31 06:07:18;;;;;;;66.83;33.40;;;7.10;93.20;;;;;;5085371;28;20194;-82
2022/12/31 06:09:46;;;;;;;66.50;34.90;;;7.10;93.20;;;;;;5080032;28;20795;-82
2022/12/31 06:12:16;;;;;;;72.63;35.70;;;7.10;93.30;;;;;;5084319;28;20704;-78
2022/12/31 06:14:44;;;;;;;71.17;35.07;;;7.10;93.20;;;;;;5080349;28;20197;-80
2022/12/31 06:17:13;;;;;;;70.00;35.47;;;7.10;93.20;;;;;;5079505;28;20379;-81
2022/12/31 06:19:41;;;;;;;69.50;35.00;;;7.00;93.30;;;;;;5076543;28;20606;-80
2022/12/31 06:22:09;;;;;;;68.33;35.40;;;7.00;93.40;;;;;;5086035;28;20229;-80
2022/12/31 06:24:38;;;;;;;67.80;33.67;;;7.00;93.60;;;;;;5080842;28;20200;-81
2022/12/31 06:27:06;;;;;;;65.63;34.00;;;7.00;93.60;;;;;;5072336;28;20204;-80
2022/12/31 06:29:36;;;;;;;67.90;34.53;;;7.00;93.60;;;;;;5072872;28;20617;-80
2022/12/31 06:32:05;;;;;;;68.03;35.07;;;7.00;93.60;;;;;;5078674;28;20211;-80
2022/12/31 06:34:33;;;;;;;70.07;35.73;;;7.00;93.70;;;;;;5090838;28;20192;-82
2022/12/31 06:37:05;;;;;;;73.03;34.13;;;7.10;93.70;;;;;;5089166;28;20196;-81
2022/12/31 06:39:33;;;;;;;69.67;36.53;;;7.10;93.70;;;;;;5086349;28;20274;-81
2022/12/31 06:42:01;;;;;;;74.83;35.43;;;7.10;93.70;;;;;;5087027;28;20285;-81
2022/12/31 06:44:30;;;;;;;72.00;34.83;;;7.10;93.80;;;;;;5076776;28;20204;-79
2022/12/31 06:46:59;;;;;;;70.20;35.87;;;7.20;93.80;;;;;;5091160;28;20196;-79
2022/12/31 06:49:28;;;;;;;74.63;36.33;;;7.20;93.80;;;;;;5077136;28;20676;-81
2022/12/31 06:51:56;;;;;;;77.70;36.40;;;7.20;93.90;;;;;;5087555;28;20210;-80
2022/12/31 06:54:24;;;;;;;70.73;37.97;;;7.20;94.00;;;;;;5089278;28;20240;-80
2022/12/31 06:56:53;;;;;;;73.10;36.77;;;7.20;94.20;;;;;;5083999;28;20720;-80
2022/12/31 06:59:25;;;;;;;81.25;41.88;;;7.30;94.20;;;;;;5079694;28;20866;-79
2022/12/31 07:02:12;;;;;;;75.60;39.63;;;7.30;94.40;;;;;;5088605;28;20200;-78
2022/12/31 07:05:08;;;;;;;72.20;38.37;;;7.20;94.50;;;;;;5079776;28;20203;-81
2022/12/31 07:07:52;;;;;;;81.17;39.53;;;7.30;94.50;;;;;;5081544;28;20281;-81
2022/12/31 07:10:30;;;;;;;72.10;37.90;;;7.30;94.60;;;;;;5081223;28;20230;-79
2022/12/31 07:13:11;;;;;;;84.27;44.57;;;7.30;94.50;;;;;;5075520;28;20443;-80
2022/12/31 07:16:01;;;;;;;76.00;39.10;;;7.30;95.00;;;;;;5087456;28;20259;-78
2022/12/31 07:18:37;;;;;;;76.27;37.53;;;7.40;95.40;;;;;;5082938;28;20564;-80
2022/12/31 07:21:12;;;;;;;82.77;40.10;;;7.40;95.00;;;;;;5079108;28;20210;-80
2022/12/31 07:23:41;;;;;;;75.70;39.03;;;7.50;95.00;;;;;;5077874;28;20193;-80
2022/12/31 07:26:18;;;;;;;80.75;44.22;;;7.50;94.90;;;;;;5090140;28;20430;-79
2022/12/31 07:28:56;;;;;;;76.40;37.90;;;7.60;95.00;;;;;;5082950;28;20220;-79
2022/12/31 07:31:38;;;;;;;73.33;37.77;;;7.60;94.90;;;;;;5086059;28;20771;-80
2022/12/31 07:34:19;;;;;;;68.80;36.20;;;7.70;94.90;;;;;;5082673;28;20725;-81
2022/12/31 07:37:01;;;;;;;62.37;34.30;;;7.80;94.80;;;;;;5085768;28;20607;-82
2022/12/31 07:39:39;;;;;;;67.03;36.47;;;7.80;94.80;;;;;;5082271;28;20209;-81
2022/12/31 07:42:15;;;;;;;72.13;38.17;;;7.90;94.80;;;;;;5083800;28;20190;-82
2022/12/31 07:45:01;;;;;;;68.43;37.03;;;8.00;94.80;;;;;;5089384;28;20259;-81
2022/12/31 07:47:30;;;;;;;76.50;40.30;;;8.10;94.80;;;;;;5090725;28;20827;-81
2022/12/31 07:50:00;;;;;;;62.20;34.03;;;8.10;94.70;;;;;;5087316;28;20198;-81
2022/12/31 07:52:29;;;;;;;68.27;36.30;;;8.20;94.70;;;;;;5093020;28;20190;-82
2022/12/31 07:54:57;;;;;;;65.67;35.20;;;8.20;94.60;;;;;;5073812;28;20918;-82
2022/12/31 07:57:32;;;;;;;62.90;33.33;;;8.30;94.60;;;;;;5082856;28;20187;-81
2022/12/31 08:00:06;;;;;;;69.70;36.37;;;8.30;94.50;;;;;;5072252;28;20210;-82
2022/12/31 08:02:52;;;;;;;63.03;33.67;;;8.40;94.50;;;;;;5083456;28;20201;-82
2022/12/31 08:05:31;;;;;;;69.27;36.87;;;8.50;94.50;;;;;;5079155;28;20190;-78
2022/12/31 08:08:12;;;;;;;62.87;33.83;;;8.50;94.40;;;;;;5076540;28;20713;-81
2022/12/31 08:10:51;;;;;;;59.53;33.40;;;8.60;94.30;;;;;;5077263;28;20700;-84
2022/12/31 08:13:20;;;;;;;68.10;35.03;;;8.60;94.10;;;;;;5082652;28;20181;-83
2022/12/31 08:15:49;;;;;;;61.60;32.93;;;8.60;94.00;;;;;;5090559;28;20204;-84
2022/12/31 08:18:18;;;;;;;63.23;33.67;;;8.70;94.00;;;;;;5093597;28;20189;-83
2022/12/31 08:20:55;;;;;;;66.40;35.17;;;8.70;93.90;;;;;;5093347;28;20351;-81
2022/12/31 08:23:32;;;;;;;66.77;34.33;;;8.80;93.90;;;;;;5084285;28;20194;-82
2022/12/31 08:26:11;;;;;;;62.00;34.60;;;8.80;94.20;;;;;;5087745;28;20197;-83
2022/12/31 08:28:52;;;;;;;62.57;34.37;;;8.90;93.90;;;;;;5085211;28;20806;-83
2022/12/31 08:31:25;;;;;;;60.97;34.10;;;9.00;93.80;;;;;;5086085;28;20198;-84
2022/12/31 08:34:00;;;;;;;61.77;33.97;;;9.00;93.70;;;;;;5081654;28;20543;-83
2022/12/31 08:36:45;;;;;;;64.37;34.93;;;9.10;93.70;;;;;;5087693;28;20201;-82
2022/12/31 08:39:33;;;;;;;57.10;32.10;;;9.10;93.70;;;;;;5086654;28;20194;-83
2022/12/31 08:42:07;;;;;;;59.90;32.23;;;9.20;93.70;;;;;;5077170;28;20236;-84
2022/12/31 08:44:44;;;;;;;59.87;32.00;;;9.30;93.70;;;;;;5085628;28;20216;-83
2022/12/31 08:47:23;;;;;;;63.63;31.97;;;9.30;93.50;;;;;;5093238;28;20288;-84
2022/12/31 08:49:51;;;;;;;61.07;33.13;;;9.40;93.50;;;;;;5090408;28;20189;-83
2022/12/31 08:52:24;;;;;;;60.40;32.47;;;9.50;93.50;;;;;;5093310;28;20190;-83
2022/12/31 08:54:53;;;;;;;57.60;32.43;;;9.60;93.40;;;;;;5088396;28;20198;-84
2022/12/31 08:57:29;;;;;;;63.57;33.07;;;9.60;93.30;;;;;;5085867;28;20208;-83
2022/12/31 09:00:05;;;;;;;54.10;30.23;;;9.70;93.30;;;;;;5094928;28;20185;-84
2022/12/31 09:03:02;;;;;;;55.03;31.03;;;9.80;93.20;;;;;;5091758;28;20204;-83
2022/12/31 09:05:36;;;;;;;51.33;27.40;;;9.90;93.20;;;;;;5082956;28;20636;-82
2022/12/31 09:08:15;;;;;;;55.03;29.43;;;9.90;92.90;;;;;;5089304;28;20225;-82
2022/12/31 09:10:51;;;;;;;55.70;30.03;;;10.00;92.60;;;;;;5081551;28;20193;-82
2022/12/31 09:13:29;;;;;;;48.20;28.67;;;10.10;92.50;;;;;;5084267;28;20190;-82
2022/12/31 09:16:06;;;;;;;55.93;29.73;;;10.10;92.40;;;;;;5091265;28;20262;-82
2022/12/31 09:18:39;;;;;;;58.40;28.80;;;10.20;92.40;;;;;;5085853;28;20189;-83
2022/12/31 09:21:09;;;;;;;50.30;28.37;;;10.20;92.50;;;;;;5078824;28;21014;-83
2022/12/31 09:23:40;;;;;;;51.93;29.67;;;10.30;92.30;;;;;;5089745;28;20202;-83
2022/12/31 09:26:24;;;;;;;53.10;28.67;;;10.30;92.10;;;;;;5091454;28;20206;-85
2022/12/31 09:28:59;;;;;;;54.80;27.93;;;10.40;92.00;;;;;;5098685;28;20259;-83
2022/12/31 09:31:34;;;;;;;55.00;28.73;;;10.50;92.10;;;;;;5087419;28;20197;-83
2022/12/31 09:34:12;;;;;;;51.03;28.83;;;10.50;91.90;;;;;;5085506;28;20197;-83
2022/12/31 09:36:46;;;;;;;50.40;27.63;;;10.60;92.00;;;;;;5093061;28;20258;-85
2022/12/31 09:39:22;;;;;;;52.27;26.50;;;10.70;92.10;;;;;;5075428;28;20198;-82
2022/12/31 09:42:24;;;;;;;51.63;28.87;;;10.80;92.10;;;;;;5078383;28;20217;-81
2022/12/31 09:45:25;;;;;;;48.23;26.70;;;10.90;91.90;;;;;;5030962;28;20239;-83
2022/12/31 09:48:28;;;;;;;55.28;31.75;;;11.00;91.90;;;;;;5072946;28;20445;-81
2022/12/31 09:51:12;;;;;;;51.13;30.47;;;11.10;92.00;;;;;;5080213;28;20224;-81
2022/12/31 09:54:03;;;;;;;49.83;28.40;;;11.20;91.70;;;;;;5073020;28;20255;-81
2022/12/31 09:56:39;;;;;;;47.70;27.37;;;11.20;91.60;;;;;;5091326;28;20225;-80
2022/12/31 09:59:17;;;;;;;55.20;28.37;;;11.30;91.60;;;;;;5087686;28;20242;-81
2022/12/31 10:01:50;;;;;;;51.33;27.33;;;11.40;91.50;;;;;;5092855;28;20202;-81
2022/12/31 10:04:56;;;;;;;54.03;29.03;;;11.50;91.50;;;;;;5076476;28;20197;-82
2022/12/31 10:07:46;;;;;;;47.87;27.03;;;11.50;91.30;;;;;;5037464;28;20193;-81
2022/12/31 10:10:26;;;;;;;47.97;26.50;;;11.70;91.20;;;;;;5087512;28;20189;-82
2022/12/31 10:13:22;;;;;;;46.80;26.27;;;11.70;91.10;;;;;;5089578;28;20181;-80
2022/12/31 10:16:13;;;;;;;48.30;27.03;;;11.70;90.90;;;;;;5092105;28;20197;-83
2022/12/31 10:18:58;;;;;;;48.10;27.17;;;11.80;90.90;;;;;;5081595;28;20190;-80
2022/12/31 10:21:40;;;;;;;42.73;25.63;;;11.90;90.90;;;;;;5082797;28;20213;-80
2022/12/31 10:24:30;;;;;;;46.30;26.17;;;12.00;90.80;;;;;;5080293;28;20194;-80
2022/12/31 10:27:13;;;;;;;45.70;26.27;;;12.10;90.80;;;;;;5084921;28;20235;-80
2022/12/31 10:29:47;;;;;;;50.00;26.03;;;12.10;90.60;;;;;;5084458;28;20197;-81
2022/12/31 10:32:19;;;;;;;43.93;26.03;;;12.20;90.70;;;;;;5094826;28;20254;-81
2022/12/31 10:34:59;;;;;;;42.80;24.53;;;12.30;90.60;;;;;;5090000;28;20185;-80
2022/12/31 10:37:34;;;;;;;42.60;23.13;;;12.30;90.60;;;;;;5084938;28;20243;-81
2022/12/31 10:40:18;;;;;;;40.63;22.83;;;12.40;90.60;;;;;;5084197;28;20208;-81
2022/12/31 10:43:21;;;;;;;39.73;22.80;;;12.50;90.50;;;;;;5088083;28;20599;-79
2022/12/31 10:46:19;;;;;;;42.07;22.47;;;12.60;90.50;;;;;;5083793;28;20239;-78
2022/12/31 10:49:46;;;;;;;39.17;22.43;;;12.70;90.40;;;;;;5077193;28;20243;-78
2022/12/31 10:52:51;;;;;;;40.83;22.67;;;12.80;90.30;;;;;;5088567;28;20238;-79
2022/12/31 10:55:56;;;;;;;41.27;24.00;;;12.80;90.00;;;;;;5076616;28;20723;-78
2022/12/31 10:59:01;;;;;;;38.53;23.90;;;12.90;90.00;;;;;;5079182;28;20239;-79
2022/12/31 11:01:42;;;;;;;39.23;24.17;;;13.10;90.00;;;;;;5038471;28;20245;-79
2022/12/31 11:04:45;;;;;;;41.00;24.40;;;13.10;89.70;;;;;;5088852;28;20194;-77
2022/12/31 11:07:47;;;;;;;43.37;22.43;;;13.20;89.80;;;;;;5077691;28;20189;-80
2022/12/31 11:10:48;;;;;;;39.47;24.33;;;13.30;90.00;;;;;;5080260;28;20189;-80
2022/12/31 11:14:01;;;;;;;44.43;24.30;;;13.40;89.90;;;;;;5093351;28;20189;-80
2022/12/31 11:16:44;;;;;;;37.53;21.27;;;13.50;89.80;;;;;;5078815;28;20236;-80
2022/12/31 11:19:21;;;;;;;35.97;19.33;;;13.60;89.10;;;;;;5077970;28;20626;-79
2022/12/31 11:22:07;;;;;;;37.80;20.87;;;13.60;89.10;;;;;;5085834;28;20266;-80
2022/12/31 11:24:51;;;;;;;35.37;19.73;;;13.70;88.30;;;;;;5079713;28;20271;-81
2022/12/31 11:27:30;;;;;;;33.07;18.77;;;13.70;88.20;;;;;;5078791;28;20240;-81
2022/12/31 11:30:10;;;;;;;34.70;19.47;;;13.80;87.70;;;;;;5084368;28;20276;-81
2022/12/31 11:32:57;;;;;;;37.97;20.67;;;13.90;87.70;;;;;;5082934;28;20229;-80
2022/12/31 11:35:33;;;;;;;34.38;20.30;;;14.00;86.60;;;;;;5078883;28;20502;-81
2022/12/31 11:38:16;;;;;;;33.10;19.47;;;14.10;86.40;;;;;;5085272;28;20221;-80
2022/12/31 11:40:54;;;;;;;29.67;17.60;;;14.10;85.80;;;;;;5096092;28;20194;-82
2022/12/31 11:43:30;;;;;;;36.03;18.17;;;14.20;85.80;;;;;;5087383;28;20689;-78
2022/12/31 11:46:28;;;;;;;32.43;18.23;;;14.20;84.00;;;;;;5087642;28;20266;-80
2022/12/31 11:49:15;;;;;;;33.73;18.60;;;14.30;84.40;;;;;;5067941;28;20201;-80
2022/12/31 11:52:07;;;;;;;33.87;19.07;;;14.40;84.70;;;;;;5092619;28;20270;-82
2022/12/31 11:54:49;;;;;;;36.15;21.00;;;14.40;84.60;;;;;;5077330;28;20960;-80
2022/12/31 11:57:26;;;;;;;38.33;21.07;;;14.50;84.70;;;;;;5088313;28;20195;-81
2022/12/31 11:59:59;;;;;;;38.27;19.17;;;14.50;84.50;;;;;;5084858;28;20269;-80
2022/12/31 12:02:29;;;;;;;35.67;20.73;;;14.60;84.30;;;;;;5082003;28;20700;-81
2022/12/31 12:05:01;;;;;;;41.13;20.67;;;14.60;84.00;;;;;;5088138;28;20278;-81
2022/12/31 12:07:37;;;;;;;41.90;21.67;;;14.60;83.70;;;;;;5085278;28;20181;-80
2022/12/31 12:10:22;;;;;;;32.03;19.70;;;14.70;83.80;;;;;;5079364;28;20657;-80
2022/12/31 12:12:51;;;;;;;37.43;19.73;;;14.80;84.00;;;;;;5082252;28;20540;-80
2022/12/31 12:15:23;;;;;;;35.53;19.47;;;14.80;83.80;;;;;;5086183;28;20601;-81
2022/12/31 12:17:54;;;;;;;31.60;19.10;;;14.90;84.00;;;;;;5089280;28;20267;-79
2022/12/31 12:20:30;;;;;;;35.90;19.63;;;14.90;83.80;;;;;;5085615;28;20182;-76
2022/12/31 12:23:00;;;;;;;35.57;19.87;;;14.90;83.80;;;;;;5097395;28;20218;-82
2022/12/31 12:25:39;;;;;;;33.53;19.40;;;14.90;83.60;;;;;;5089720;28;20654;-81
2022/12/31 12:28:21;;;;;;;38.07;20.00;;;14.90;83.30;;;;;;5093690;28;20198;-81
2022/12/31 12:30:56;;;;;;;31.87;17.87;;;15.00;83.20;;;;;;5077969;28;20217;-80
2022/12/31 12:33:25;;;;;;;33.93;18.10;;;15.00;82.00;;;;;;5087846;28;20189;-80
2022/12/31 12:35:54;;;;;;;31.50;19.07;;;15.10;82.40;;;;;;5090207;28;20197;-79
2022/12/31 12:38:23;;;;;;;36.57;21.10;;;15.10;82.60;;;;;;5081966;28;20331;-79
2022/12/31 12:40:58;;;;;;;34.87;20.87;;;15.10;83.20;;;;;;5082161;28;20186;-81
2022/12/31 12:43:28;;;;;;;41.30;21.87;;;15.20;83.60;;;;;;5079257;28;20273;-80
2022/12/31 12:46:00;;;;;;;38.90;20.73;;;15.30;84.00;;;;;;5087224;28;20231;-80
2022/12/31 12:48:35;;;;;;;35.47;21.13;;;15.30;83.90;;;;;;5085057;28;20193;-80
2022/12/31 12:51:14;;;;;;;37.47;19.77;;;15.30;83.80;;;;;;5088902;28;20213;-82
2022/12/31 12:53:48;;;;;;;33.93;18.67;;;15.40;83.00;;;;;;5076633;28;20563;-82
2022/12/31 12:56:30;;;;;;;35.50;18.37;;;15.40;82.50;;;;;;5086119;28;20185;-81
2022/12/31 12:59:26;;;;;;;37.70;18.70;;;15.40;81.90;;;;;;5081492;28;20247;-82
2022/12/31 13:02:08;;;;;;;32.97;19.17;;;15.50;82.50;;;;;;5088067;28;20591;-83
2022/12/31 13:04:52;;;;;;;32.70;17.07;;;15.50;83.30;;;;;;5085370;28;20190;-81
2022/12/31 13:07:32;;;;;;;28.53;17.37;;;15.60;82.20;;;;;;5079775;28;20197;-80
2022/12/31 13:10:21;;;;;;;29.00;18.00;;;15.80;82.20;;;;;;5081972;28;20829;-82
2022/12/31 13:12:59;;;;;;;34.10;18.27;;;16.10;83.00;;;;;;5080496;28;20194;-81
2022/12/31 13:15:54;;;;;;;28.63;17.38;;;16.40;82.80;;;;;;5081434;28;20653;-86
2022/12/31 13:18:45;;;;;;;23.90;15.15;;;16.70;82.70;;;;;;5077448;28;20197;-80
2022/12/31 13:21:30;;;;;;;24.58;15.13;;;16.80;80.30;;;;;;5079247;28;20190;-79
2022/12/31 13:24:05;;;;;;;26.42;14.93;;;16.90;77.80;;;;;;5084637;28;20237;-82
2022/12/31 13:26:38;;;;;;;24.88;14.25;;;17.00;77.50;;;;;;5088917;28;20193;-81